Amsterdam, Montana
Current Conditions -  °F | °C
As of 10:56 PM on Sunday 25 Jan 2015 (Local Time) from KBZN Reporting Station
Clear Clear  
Wind Chill: 40°   Ceiling: Unl
Heat Index: 43°   Visibility: 10mi
Dew Point: 28°   Wind: 5mph
Humidity: 56%   Direction: 210°SSW
Pressure: 30.27"   Gusts: NA
Location:  45.7517°N, 111.347°W
Report Text: KBZN 260556Z AUTO 21004KT 10SM CLR 06/M02 A3027 RMK AO2 SLP262 T00611022 10072 20011 51003
Loading
Personal Weather Stations






























Interactive Weather Map New forecast layout! Learn more

10-Day Weather Forecast

Advertisements
Track Severe Weather on mobile